Time;durP1;ratioP1;P1;durP2;ratioP2;P2;SDS_P1;SDS_P2;PMS_P1;PMS_P2;Temp;Humidity;BMP_temperature;BMP_pressure;BME280_temperature;BME280_humidity;BME280_pressure;Samples;Min_cycle;Max_cycle;Signal;HPM_P1;HPM_P2
2023/03/29 00:00:15;;;;;;;;;;;18.70;51.30;;;;;;5035493;28;19909;-76
2023/03/29 00:02:46;;;;;;;;;;;18.90;51.10;;;;;;5035256;28;19909;-76
2023/03/29 00:05:13;;;;;;;;;;;18.80;51.30;;;;;;5053272;28;20426;-76
2023/03/29 00:07:40;;;;;;;;;;;18.90;51.20;;;;;;5053227;28;19961;-76
2023/03/29 00:10:06;;;;;;;;;;;18.70;51.30;;;;;;5034468;28;19912;-76
2023/03/29 00:12:32;;;;;;;;;;;18.80;51.40;;;;;;5053112;28;19920;-76
2023/03/29 00:14:58;;;;;;;;;;;18.90;51.40;;;;;;5052909;28;19908;-76
2023/03/29 00:17:24;;;;;;;;;;;18.90;51.40;;;;;;5052998;28;19909;-76
2023/03/29 00:19:50;;;;;;;;;;;18.80;51.40;;;;;;5052847;28;19908;-76
2023/03/29 00:22:16;;;;;;;;;;;18.80;51.30;;;;;;5053404;28;19912;-77
2023/03/29 00:24:42;;;;;;;;;;;18.80;51.30;;;;;;5052860;28;19991;-76
2023/03/29 00:27:08;;;;;;;;;;;18.70;51.40;;;;;;5001328;28;19922;-76
2023/03/29 00:29:34;;;;;;;;;;;18.70;51.40;;;;;;5052923;28;19913;-76
2023/03/29 00:32:00;;;;;;;;;;;18.70;51.50;;;;;;5052755;28;20010;-76
2023/03/29 00:34:29;;;;;;;;;;;18.70;51.60;;;;;;5052720;28;20015;-76
2023/03/29 00:36:56;;;;;;;;;;;18.70;51.70;;;;;;5052605;28;19955;-76
2023/03/29 00:39:23;;;;;;;;;;;18.70;51.70;;;;;;5034871;28;19932;-76
2023/03/29 00:41:49;;;;;;;;;;;18.60;51.60;;;;;;5052639;28;19909;-76
2023/03/29 00:44:34;;;;;;;;;;;18.50;51.70;;;;;;5052376;28;19909;-76
2023/03/29 00:47:00;;;;;;;;;;;18.50;51.90;;;;;;5034669;28;19923;-76
2023/03/29 00:49:26;;;;;;;;;;;18.50;52.00;;;;;;5052879;28;20003;-76
2023/03/29 00:51:52;;;;;;;;;;;18.50;52.00;;;;;;5052576;28;20326;-76
2023/03/29 00:54:18;;;;;;;;;;;18.50;52.00;;;;;;5052118;28;19995;-76
2023/03/29 00:56:46;;;;;;;;;;;18.40;51.90;;;;;;5052392;28;20319;-76
2023/03/29 00:59:15;;;;;;;;;;;18.40;52.00;;;;;;5052323;28;19920;-76
2023/03/29 01:01:53;;;;;;;;;;;18.40;52.00;;;;;;5034402;28;20406;-76
2023/03/29 01:04:45;;;;;;;;;;;18.60;52.00;;;;;;5052147;28;19908;-76
2023/03/29 01:07:16;;;;;;;;;;;18.50;51.90;;;;;;4951632;29;19922;-76
2023/03/29 01:09:44;;;;;;;;;;;18.50;51.80;;;;;;4951662;29;20021;-76
2023/03/29 01:12:15;;;;;;;;;;;18.70;52.00;;;;;;4951772;29;19925;-76
2023/03/29 01:14:45;;;;;;;;;;;18.50;51.80;;;;;;4971281;28;20404;-76
2023/03/29 01:17:11;;;;;;;;;;;18.50;51.90;;;;;;4974163;28;19909;-76
2023/03/29 01:19:41;;;;;;;;;;;18.50;52.00;;;;;;4973894;28;20356;-76
2023/03/29 01:22:13;;;;;;;;;;;18.50;52.00;;;;;;4990084;28;20483;-76
2023/03/29 01:24:40;;;;;;;;;;;18.50;51.80;;;;;;4973725;28;19914;-76
2023/03/29 01:27:27;;;;;;;;;;;18.50;51.70;;;;;;4990272;28;19917;-76
2023/03/29 01:30:00;;;;;;;;;;;18.60;51.60;;;;;;4973858;28;19914;-76
2023/03/29 01:32:33;;;;;;;;;;;18.60;51.70;;;;;;4973953;28;19944;-76
2023/03/29 01:35:18;;;;;;;;;;;18.50;51.60;;;;;;4973703;28;20034;-75
2023/03/29 01:37:47;;;;;;;;;;;18.60;51.30;;;;;;4989838;28;19909;-76
2023/03/29 01:40:12;;;;;;;;;;;18.60;51.40;;;;;;4990058;28;19914;-76
2023/03/29 01:42:38;;;;;;;;;;;18.70;51.30;;;;;;4973756;28;19972;-76
2023/03/29 01:45:21;;;;;;;;;;;18.70;51.40;;;;;;5065490;28;19923;-76
2023/03/29 01:47:47;;;;;;;;;;;18.60;51.30;;;;;;5071715;28;19923;-76
2023/03/29 01:50:13;;;;;;;;;;;18.60;51.40;;;;;;5070256;28;20265;-76
2023/03/29 01:52:44;;;;;;;;;;;18.50;51.60;;;;;;5070240;28;20360;-76
2023/03/29 01:55:10;;;;;;;;;;;18.40;51.50;;;;;;5071448;28;19916;-76
2023/03/29 01:57:37;;;;;;;;;;;18.50;51.60;;;;;;5070255;28;19912;-76
2023/03/29 02:00:08;;;;;;;;;;;18.50;51.70;;;;;;5070141;28;19919;-76
2023/03/29 02:02:39;;;;;;;;;;;18.40;51.70;;;;;;5070302;28;20309;-77
2023/03/29 02:05:05;;;;;;;;;;;18.40;51.90;;;;;;5071265;28;19912;-76
2023/03/29 02:07:36;;;;;;;;;;;18.30;52.00;;;;;;5070040;28;20295;-75
2023/03/29 02:10:03;;;;;;;;;;;18.40;52.00;;;;;;5071199;28;19919;-76
2023/03/29 02:12:29;;;;;;;;;;;18.40;52.00;;;;;;5070883;28;19928;-75
2023/03/29 02:14:59;;;;;;;;;;;18.30;52.10;;;;;;5051172;28;19912;-76
2023/03/29 02:17:29;;;;;;;;;;;18.40;52.10;;;;;;5051381;28;19916;-76
2023/03/29 02:19:59;;;;;;;;;;;18.20;52.00;;;;;;5050986;28;19912;-76
2023/03/29 02:22:27;;;;;;;;;;;18.20;52.10;;;;;;5051117;28;19920;-76
2023/03/29 02:24:57;;;;;;;;;;;18.20;52.10;;;;;;5050643;28;19913;-76
2023/03/29 02:27:25;;;;;;;;;;;18.40;52.20;;;;;;5033371;28;19934;-76
2023/03/29 02:29:51;;;;;;;;;;;18.30;52.10;;;;;;5050992;28;19954;-76
2023/03/29 02:32:47;;;;;;;;;;;18.30;52.00;;;;;;5051262;28;20319;-75
2023/03/29 02:35:20;;;;;;;;;;;18.40;52.00;;;;;;4953732;29;19914;-75
2023/03/29 02:37:48;;;;;;;;;;;18.20;52.00;;;;;;4954516;29;19910;-76
2023/03/29 02:40:14;;;;;;;;;;;18.20;52.00;;;;;;4954355;29;19911;-76
2023/03/29 02:42:43;;;;;;;;;;;18.20;52.20;;;;;;4938512;29;20295;-76
2023/03/29 02:45:11;;;;;;;;;;;18.30;52.20;;;;;;4938006;29;19914;-76
2023/03/29 02:47:38;;;;;;;;;;;18.30;52.10;;;;;;4938386;29;20346;-76
2023/03/29 02:50:05;;;;;;;;;;;18.30;52.20;;;;;;4938146;29;19969;-76
2023/03/29 02:52:33;;;;;;;;;;;18.30;52.00;;;;;;4938529;29;19973;-76
2023/03/29 02:55:02;;;;;;;;;;;18.30;51.90;;;;;;4938169;29;19917;-76
2023/03/29 02:57:31;;;;;;;;;;;18.30;51.90;;;;;;4938629;29;19914;-76
2023/03/29 02:59:57;;;;;;;;;;;18.30;51.80;;;;;;4938319;29;19911;-76
2023/03/29 03:02:25;;;;;;;;;;;18.30;51.80;;;;;;4953950;29;19910;-76
2023/03/29 03:04:52;;;;;;;;;;;18.40;51.70;;;;;;4937780;29;19942;-76
2023/03/29 03:07:19;;;;;;;;;;;18.30;51.60;;;;;;4937769;29;19968;-76
2023/03/29 03:09:46;;;;;;;;;;;18.40;51.70;;;;;;4953772;29;19962;-76
2023/03/29 03:12:13;;;;;;;;;;;18.30;51.70;;;;;;5001073;28;20050;-76
2023/03/29 03:14:39;;;;;;;;;;;18.30;51.80;;;;;;5068957;28;20006;-76
2023/03/29 03:17:05;;;;;;;;;;;18.30;51.70;;;;;;5072954;28;19908;-76
2023/03/29 03:19:32;;;;;;;;;;;18.20;51.40;;;;;;5073112;28;19919;-76
2023/03/29 03:21:58;;;;;;;;;;;18.30;51.70;;;;;;5072989;28;19913;-75
2023/03/29 03:24:24;;;;;;;;;;;18.40;51.40;;;;;;5073898;28;19915;-76
2023/03/29 03:26:50;;;;;;;;;;;18.20;51.60;;;;;;5072756;28;19919;-76
2023/03/29 03:29:18;;;;;;;;;;;18.30;50.70;;;;;;5072759;28;19923;-76
2023/03/29 03:32:02;;;;;;;;;;;18.40;51.60;;;;;;5074245;28;19908;-76
2023/03/29 03:34:47;;;;;;;;;;;18.40;51.60;;;;;;5074072;28;19908;-76
2023/03/29 03:37:14;;;;;;;;;;;18.30;51.70;;;;;;5072524;28;19912;-76
2023/03/29 03:39:40;;;;;;;;;;;18.40;51.70;;;;;;5056095;28;19995;-76
2023/03/29 03:42:08;;;;;;;;;;;18.30;51.70;;;;;;5072540;28;20003;-76
2023/03/29 03:44:39;;;;;;;;;;;18.40;51.70;;;;;;5072394;28;19912;-76
2023/03/29 03:47:20;;;;;;;;;;;18.40;51.60;;;;;;5072379;28;19917;-75
2023/03/29 03:49:47;;;;;;;;;;;18.50;51.40;;;;;;5072435;28;20394;-76
2023/03/29 03:52:13;;;;;;;;;;;18.40;51.50;;;;;;5072483;28;19908;-76
2023/03/29 03:54:40;;;;;;;;;;;18.60;51.30;;;;;;5073447;28;19919;-76
2023/03/29 03:57:25;;;;;;;;;;;18.50;51.10;;;;;;5073543;28;19908;-76
2023/03/29 03:59:52;;;;;;;;;;;18.40;51.20;;;;;;5072353;28;19920;-76
2023/03/29 04:02:27;;;;;;;;;;;18.50;51.30;;;;;;5073242;28;20003;-76
2023/03/29 04:04:53;;;;;;;;;;;18.40;51.20;;;;;;5071733;28;20030;-76
2023/03/29 04:07:24;;;;;;;;;;;18.40;51.30;;;;;;5072044;28;19912;-76
2023/03/29 04:10:09;;;;;;;;;;;18.50;51.10;;;;;;5073321;28;20355;-76
2023/03/29 04:12:49;;;;;;;;;;;18.40;51.00;;;;;;5068780;28;19925;-76
2023/03/29 04:15:16;;;;;;;;;;;18.50;51.10;;;;;;5035136;28;19916;-76
2023/03/29 04:17:49;;;;;;;;;;;18.50;51.20;;;;;;5019903;28;19912;-76
2023/03/29 04:20:34;;;;;;;;;;;18.50;51.20;;;;;;5035230;28;19916;-76
2023/03/29 04:23:01;;;;;;;;;;;18.50;51.20;;;;;;5034953;28;19909;-76
2023/03/29 04:25:28;;;;;;;;;;;18.40;51.10;;;;;;5052706;28;20325;-77
2023/03/29 04:28:23;;;;;;;;;;;18.50;51.10;;;;;;5052929;28;19998;-76
2023/03/29 04:31:10;;;;;;;;;;;18.40;51.10;;;;;;5035063;28;19916;-76
2023/03/29 04:34:08;;;;;;;;;;;18.60;51.00;;;;;;4971615;28;19910;-76
2023/03/29 04:36:34;;;;;;;;;;;18.40;50.90;;;;;;4971240;28;20145;-76
2023/03/29 04:39:03;;;;;;;;;;;18.50;51.00;;;;;;4971764;28;20000;-76
2023/03/29 04:41:31;;;;;;;;;;;18.50;51.10;;;;;;4955296;28;19925;-76
2023/03/29 04:44:02;;;;;;;;;;;18.50;51.20;;;;;;4971616;28;19913;-76
2023/03/29 04:46:31;;;;;;;;;;;18.50;51.20;;;;;;4971007;28;19918;-76
2023/03/29 04:49:29;;;;;;;;;;;18.40;51.20;;;;;;4932855;29;19958;-76
2023/03/29 04:51:55;;;;;;;;;;;18.30;51.20;;;;;;4932800;29;20005;-76
2023/03/29 04:54:26;;;;;;;;;;;18.40;51.40;;;;;;4932998;29;19918;-76
2023/03/29 04:57:15;;;;;;;;;;;18.30;51.40;;;;;;4894441;29;19915;-76
2023/03/29 05:00:07;;;;;;;;;;;18.30;51.50;;;;;;4894467;29;19911;-76
2023/03/29 05:02:52;;;;;;;;;;;18.30;51.40;;;;;;4894920;29;20367;-76
2023/03/29 05:05:18;;;;;;;;;;;18.30;51.40;;;;;;4894434;29;20387;-76
2023/03/29 05:07:46;;;;;;;;;;;18.30;51.30;;;;;;4879902;29;19967;-76
2023/03/29 05:10:13;;;;;;;;;;;18.30;51.50;;;;;;4907757;29;19954;-76
2023/03/29 05:12:40;;;;;;;;;;;18.30;51.20;;;;;;4900893;29;19922;-76
2023/03/29 05:15:07;;;;;;;;;;;18.40;51.10;;;;;;4919561;29;20472;-75
2023/03/29 05:17:33;;;;;;;;;;;18.30;51.10;;;;;;4936087;29;19937;-75
2023/03/29 05:20:09;;;;;;;;;;;18.40;50.10;;;;;;4935449;29;19918;-76
2023/03/29 05:22:35;;;;;;;;;;;18.50;51.00;;;;;;4951554;29;19957;-76
2023/03/29 05:25:01;;;;;;;;;;;18.60;49.90;;;;;;4971673;28;19917;-75
2023/03/29 05:27:27;;;;;;;;;;;18.70;50.00;;;;;;5029371;28;20293;-76
2023/03/29 05:30:00;;;;;;;;;;;18.50;49.20;;;;;;5012914;28;19909;-76
2023/03/29 05:32:32;;;;;;;;;;;18.50;49.20;;;;;;5013059;28;19917;-76
2023/03/29 05:34:58;;;;;;;;;;;18.30;49.80;;;;;;5057642;28;19948;-75
2023/03/29 05:37:25;;;;;;;;;;;18.50;50.40;;;;;;5070262;28;19908;-76
2023/03/29 05:39:58;;;;;;;;;;;18.40;50.00;;;;;;5070438;28;20344;-76
2023/03/29 05:42:29;;;;;;;;;;;18.50;49.40;;;;;;5070466;28;19919;-76
2023/03/29 05:45:06;;;;;;;;;;;18.50;46.00;;;;;;5070153;28;19999;-76
2023/03/29 05:47:32;;;;;;;;;;;18.40;49.70;;;;;;5070425;28;20346;-76
2023/03/29 05:49:58;;;;;;;;;;;18.40;47.30;;;;;;5070454;28;19938;-76
2023/03/29 05:52:24;;;;;;;;;;;18.50;47.20;;;;;;5070033;28;19908;-76
2023/03/29 05:54:50;;;;;;;;;;;18.20;47.50;;;;;;5070237;28;20422;-76
2023/03/29 05:57:16;;;;;;;;;;;18.10;44.80;;;;;;5069919;28;19908;-76
2023/03/29 05:59:43;;;;;;;;;;;18.10;48.20;;;;;;5070168;28;19913;-76
2023/03/29 06:02:11;;;;;;;;;;;18.20;48.10;;;;;;5069911;28;20271;-76
2023/03/29 06:04:42;;;;;;;;;;;18.20;48.90;;;;;;5032655;28;19916;-76
2023/03/29 06:07:23;;;;;;;;;;;18.10;46.70;;;;;;5048643;28;19920;-76
2023/03/29 06:10:08;;;;;;;;;;;18.00;44.80;;;;;;5052341;28;19908;-76
2023/03/29 06:12:35;;;;;;;;;;;17.90;48.00;;;;;;5019768;28;19917;-75
2023/03/29 06:15:03;;;;;;;;;;;18.00;44.20;;;;;;5036438;28;19934;-76
2023/03/29 06:17:38;;;;;;;;;;;17.90;45.40;;;;;;5052787;28;20003;-76
2023/03/29 06:20:10;;;;;;;;;;;17.80;47.20;;;;;;5036449;28;19913;-76
2023/03/29 06:22:38;;;;;;;;;;;17.80;48.30;;;;;;5053406;28;19958;-75
2023/03/29 06:25:05;;;;;;;;;;;17.80;47.40;;;;;;5036191;28;20092;-75
2023/03/29 06:27:32;;;;;;;;;;;17.90;48.60;;;;;;5052593;28;19916;-76
2023/03/29 06:29:59;;;;;;;;;;;17.90;47.70;;;;;;5052867;28;19908;-76
2023/03/29 06:32:25;;;;;;;;;;;17.90;48.50;;;;;;5052773;28;20412;-76
2023/03/29 06:35:03;;;;;;;;;;;17.90;46.70;;;;;;5035887;28;19916;-76
2023/03/29 06:37:32;;;;;;;;;;;17.90;46.90;;;;;;5035661;28;20030;-75
2023/03/29 06:40:24;;;;;;;;;;;17.90;47.80;;;;;;4993175;28;19917;-75
2023/03/29 06:42:56;;;;;;;;;;;17.80;44.90;;;;;;4992921;28;20339;-76
2023/03/29 06:45:41;;;;;;;;;;;17.70;45.90;;;;;;4992886;28;20144;-76
2023/03/29 06:48:17;;;;;;;;;;;17.80;48.80;;;;;;4977467;28;20061;-76
2023/03/29 06:50:43;;;;;;;;;;;17.80;47.90;;;;;;4993112;28;19914;-76
2023/03/29 06:53:12;;;;;;;;;;;17.90;47.60;;;;;;4993014;28;19914;-76
2023/03/29 06:55:40;;;;;;;;;;;18.00;44.20;;;;;;4977181;28;19910;-76
2023/03/29 06:58:24;;;;;;;;;;;17.90;48.90;;;;;;4992972;28;19910;-76
2023/03/29 07:00:50;;;;;;;;;;;17.90;47.60;;;;;;4992811;28;20340;-76
2023/03/29 07:03:25;;;;;;;;;;;17.90;49.10;;;;;;4976697;28;19936;-76
2023/03/29 07:06:00;;;;;;;;;;;18.20;50.20;;;;;;4976332;28;20407;-75
2023/03/29 07:08:30;;;;;;;;;;;18.30;47.70;;;;;;4992663;28;19961;-76
2023/03/29 07:10:58;;;;;;;;;;;18.30;46.30;;;;;;4992665;28;19964;-76
2023/03/29 07:13:41;;;;;;;;;;;18.20;44.50;;;;;;4976722;28;20089;-76
2023/03/29 07:16:11;;;;;;;;;;;18.40;47.90;;;;;;4980465;28;19913;-75
2023/03/29 07:18:57;;;;;;;;;;;18.30;47.90;;;;;;5031658;28;19939;-75
2023/03/29 07:21:59;;;;;;;;;;;18.30;47.30;;;;;;5012224;28;20517;-76
2023/03/29 07:24:37;;;;;;;;;;;18.40;48.70;;;;;;4995366;28;19913;-75
2023/03/29 07:27:03;;;;;;;;;;;18.40;46.90;;;;;;4995625;28;19924;-76
2023/03/29 07:29:29;;;;;;;;;;;18.40;44.70;;;;;;4995515;28;19917;-76
2023/03/29 07:31:56;;;;;;;;;;;18.30;45.00;;;;;;4995355;28;20362;-76
2023/03/29 07:34:40;;;;;;;;;;;18.40;47.40;;;;;;5011800;28;19909;-75
2023/03/29 07:37:09;;;;;;;;;;;18.50;47.80;;;;;;4995191;28;19909;-76
2023/03/29 07:39:39;;;;;;;;;;;18.60;48.80;;;;;;4995375;28;19913;-75
2023/03/29 07:42:37;;;;;;;;;;;18.70;46.10;;;;;;4953263;29;20040;-76
2023/03/29 07:45:05;;;;;;;;;;;18.60;46.30;;;;;;4953173;29;19921;-75
2023/03/29 07:47:41;;;;;;;;;;;18.70;45.00;;;;;;4937074;29;20063;-76
2023/03/29 07:50:08;;;;;;;;;;;18.80;44.20;;;;;;4953092;29;19921;-76
2023/03/29 07:52:37;;;;;;;;;;;18.60;44.40;;;;;;4953113;28;20724;-75
2023/03/29 07:55:04;;;;;;;;;;;18.40;45.30;;;;;;4957510;28;19997;-76
2023/03/29 07:57:47;;;;;;;;;;;18.50;46.20;;;;;;4994625;28;20465;-76
2023/03/29 08:00:14;;;;;;;;;;;18.60;46.40;;;;;;4994899;28;19909;-75
2023/03/29 08:02:44;;;;;;;;;;;18.50;45.50;;;;;;4995275;28;19910;-76
2023/03/29 08:05:14;;;;;;;;;;;18.50;45.20;;;;;;4994682;28;19914;-76
2023/03/29 08:07:48;;;;;;;;;;;18.50;46.60;;;;;;4994951;28;19952;-76
2023/03/29 08:10:15;;;;;;;;;;;18.60;45.00;;;;;;5011091;28;20334;-75
2023/03/29 08:13:16;;;;;;;;;;;18.50;46.50;;;;;;4972107;28;19964;-76
2023/03/29 08:15:51;;;;;;;;;;;18.50;45.40;;;;;;4972138;28;19918;-75
2023/03/29 08:18:27;;;;;;;;;;;18.40;47.50;;;;;;4990800;28;19972;-76
2023/03/29 08:20:53;;;;;;;;;;;18.40;43.50;;;;;;5030732;28;19954;-76
2023/03/29 08:23:20;;;;;;;;;;;18.40;43.90;;;;;;5014238;28;20012;-76
2023/03/29 08:26:09;;;;;;;;;;;18.30;44.30;;;;;;4984868;28;19956;-76
2023/03/29 08:28:35;;;;;;;;;;;18.30;47.90;;;;;;4971670;28;19918;-75
2023/03/29 08:31:01;;;;;;;;;;;18.30;44.90;;;;;;4971053;28;19917;-76
2023/03/29 08:33:27;;;;;;;;;;;18.20;46.80;;;;;;4971815;28;19910;-76
2023/03/29 08:36:05;;;;;;;;;;;18.30;45.60;;;;;;4971718;28;19914;-75
2023/03/29 08:38:35;;;;;;;;;;;18.40;47.10;;;;;;4971249;28;19910;-75
2023/03/29 08:41:11;;;;;;;;;;;18.60;46.90;;;;;;4972039;28;20384;-75
2023/03/29 08:43:46;;;;;;;;;;;18.60;46.10;;;;;;4955250;28;19910;-75
2023/03/29 08:46:35;;;;;;;;;;;18.60;47.50;;;;;;4973477;28;20385;-75
2023/03/29 08:49:22;;;;;;;;;;;18.60;45.30;;;;;;4971227;28;19918;-76
2023/03/29 08:51:54;;;;;;;;;;;18.70;48.10;;;;;;4971283;28;19957;-75
2023/03/29 08:54:25;;;;;;;;;;;18.80;45.50;;;;;;4971280;28;19917;-76
2023/03/29 08:57:20;;;;;;;;;;;18.60;43.30;;;;;;4970938;28;19960;-75
2023/03/29 08:59:52;;;;;;;;;;;18.60;41.90;;;;;;4955050;28;19938;-76
2023/03/29 09:02:22;;;;;;;;;;;18.50;43.70;;;;;;4960589;28;19913;-75
2023/03/29 09:04:51;;;;;;;;;;;18.40;43.00;;;;;;4993707;28;20008;-75
2023/03/29 09:07:38;;;;;;;;;;;18.40;46.40;;;;;;5009440;28;19913;-76
2023/03/29 09:10:04;;;;;;;;;;;18.40;44.60;;;;;;4993696;28;20274;-76
2023/03/29 09:12:53;;;;;;;;;;;18.30;45.30;;;;;;4993326;28;19913;-76
2023/03/29 09:15:55;;;;;;;;;;;18.40;47.20;;;;;;4954825;28;19910;-76
2023/03/29 09:18:41;;;;;;;;;;;18.30;46.70;;;;;;4932378;29;19910;-76
2023/03/29 09:21:15;;;;;;;;;;;18.30;40.90;;;;;;4932261;29;19910;-76
2023/03/29 09:23:47;;;;;;;;;;;18.40;45.60;;;;;;4932511;29;20367;-76
2023/03/29 09:26:31;;;;;;;;;;;18.40;46.90;;;;;;4932027;29;19980;-75
2023/03/29 09:29:51;;;;;;;;;;;18.30;46.10;;;;;;4860197;29;19920;-76
2023/03/29 09:32:25;;;;;;;;;;;18.30;43.20;;;;;;4860419;29;19951;-76
2023/03/29 09:35:02;;;;;;;;;;;18.40;47.80;;;;;;4861339;29;19952;-75
2023/03/29 09:37:32;;;;;;;;;;;18.50;46.80;;;;;;4875594;29;20400;-75
2023/03/29 09:39:59;;;;;;;;;;;18.50;44.40;;;;;;4875712;29;19922;-76
2023/03/29 09:42:40;;;;;;;;;;;18.50;46.10;;;;;;4875431;29;19916;-75
2023/03/29 09:45:07;;;;;;;;;;;18.50;46.10;;;;;;4875611;29;19916;-75
2023/03/29 09:47:39;;;;;;;;;;;18.70;45.70;;;;;;4875244;29;19915;-75
2023/03/29 09:50:38;;;;;;;;;;;18.60;44.30;;;;;;4875559;29;19912;-76
2023/03/29 09:53:07;;;;;;;;;;;18.60;45.30;;;;;;4940523;29;20029;-75
2023/03/29 09:55:38;;;;;;;;;;;18.60;44.10;;;;;;4935293;29;20381;-75
2023/03/29 09:58:18;;;;;;;;;;;18.50;46.10;;;;;;4950754;29;19910;-76
2023/03/29 10:00:48;;;;;;;;;;;18.50;47.40;;;;;;4935469;29;19910;-76
2023/03/29 10:03:22;;;;;;;;;;;18.60;47.30;;;;;;4957053;28;20327;-75
2023/03/29 10:06:15;;;;;;;;;;;18.70;46.60;;;;;;5009031;28;19918;-75
2023/03/29 10:08:48;;;;;;;;;;;18.70;47.20;;;;;;5009186;28;19944;-75
2023/03/29 10:11:22;;;;;;;;;;;18.60;47.70;;;;;;4992738;28;19960;-75
2023/03/29 10:13:50;;;;;;;;;;;18.60;47.00;;;;;;5009057;28;19922;-77
2023/03/29 10:16:23;;;;;;;;;;;18.70;47.30;;;;;;5009155;28;19909;-75
2023/03/29 10:18:49;;;;;;;;;;;18.70;47.00;;;;;;5009270;28;20041;-76
2023/03/29 10:21:16;;;;;;;;;;;18.60;46.90;;;;;;5009089;28;20506;-75
2023/03/29 10:23:42;;;;;;;;;;;18.60;46.20;;;;;;5008925;28;19914;-75
2023/03/29 10:26:23;;;;;;;;;;;18.70;46.40;;;;;;5009039;28;19913;-76
2023/03/29 10:28:51;;;;;;;;;;;18.60;45.90;;;;;;5013478;28;20288;-76
2023/03/29 10:31:18;;;;;;;;;;;18.60;47.80;;;;;;5028886;28;19919;-76
2023/03/29 10:33:50;;;;;;;;;;;18.60;47.50;;;;;;5028671;28;20347;-76
2023/03/29 10:36:15;;;;;;;;;;;18.60;45.80;;;;;;5028751;28;19913;-76
2023/03/29 10:38:43;;;;;;;;;;;18.60;43.80;;;;;;5028524;28;20276;-76
2023/03/29 10:41:10;;;;;;;;;;;18.60;46.40;;;;;;5028861;28;19909;-75
2023/03/29 10:43:37;;;;;;;;;;;18.60;45.60;;;;;;5059631;28;19912;-76
2023/03/29 10:46:10;;;;;;;;;;;18.80;48.40;;;;;;5070901;28;19916;-76
2023/03/29 10:48:36;;;;;;;;;;;18.80;48.10;;;;;;5070843;28;20368;-75
2023/03/29 10:51:04;;;;;;;;;;;18.80;45.60;;;;;;5071043;28;19966;-75
2023/03/29 10:53:35;;;;;;;;;;;18.80;47.80;;;;;;5069490;28;19963;-76
2023/03/29 10:56:13;;;;;;;;;;;18.80;47.70;;;;;;5073929;28;19909;-76
2023/03/29 10:58:54;;;;;;;;;;;18.70;47.50;;;;;;5074580;28;20011;-76
2023/03/29 11:01:26;;;;;;;;;;;18.80;47.00;;;;;;5074725;28;19909;-76
2023/03/29 11:03:57;;;;;;;;;;;18.60;46.70;;;;;;5074372;28;19944;-77
2023/03/29 11:06:26;;;;;;;;;;;18.70;47.70;;;;;;5074446;28;19912;-76
2023/03/29 11:08:57;;;;;;;;;;;18.60;48.10;;;;;;5074152;28;19916;-76
2023/03/29 11:11:28;;;;;;;;;;;18.60;47.90;;;;;;5074501;28;20370;-76
2023/03/29 11:14:05;;;;;;;;;;;18.70;48.40;;;;;;5062322;28;20015;-76
2023/03/29 11:16:34;;;;;;;;;;;18.70;47.70;;;;;;5054734;28;19909;-76
2023/03/29 11:18:59;;;;;;;;;;;18.80;46.30;;;;;;5054271;28;19913;-76
2023/03/29 11:21:38;;;;;;;;;;;18.80;47.80;;;;;;5054353;28;19915;-75
2023/03/29 11:24:19;;;;;;;;;;;18.80;47.40;;;;;;5054228;28;19916;-76
2023/03/29 11:27:06;;;;;;;;;;;18.70;48.00;;;;;;5054014;28;20403;-75
2023/03/29 11:29:50;;;;;;;;;;;18.70;46.50;;;;;;5053528;28;19913;-75
2023/03/29 11:32:29;;;;;;;;;;;18.70;47.60;;;;;;5053734;28;19930;-76
2023/03/29 11:35:02;;;;;;;;;;;18.80;47.10;;;;;;5054123;28;19913;-76
2023/03/29 11:37:47;;;;;;;;;;;18.80;44.70;;;;;;5035812;28;19909;-75
2023/03/29 11:40:20;;;;;;;;;;;18.80;46.90;;;;;;5053985;28;19913;-75
2023/03/29 11:42:46;;;;;;;;;;;18.70;46.10;;;;;;5053806;28;19909;-76
2023/03/29 11:45:19;;;;;;;;;;;18.80;47.60;;;;;;5053654;28;19912;-76
2023/03/29 11:47:46;;;;;;;;;;;18.60;48.30;;;;;;5035727;28;20010;-76
2023/03/29 11:50:35;;;;;;;;;;;18.60;48.50;;;;;;5053881;28;19967;-76
2023/03/29 11:53:03;;;;;;;;;;;18.70;48.70;;;;;;5053582;28;19955;-76
2023/03/29 11:55:34;;;;;;;;;;;18.70;48.30;;;;;;5053711;28;20365;-76
2023/03/29 11:58:21;;;;;;;;;;;18.80;48.10;;;;;;5053307;28;19920;-76
2023/03/29 12:00:54;;;;;;;;;;;18.80;48.10;;;;;;5053383;28;19919;-75
2023/03/29 12:03:31;;;;;;;;;;;18.80;47.80;;;;;;5053482;28;19909;-76
2023/03/29 12:06:03;;;;;;;;;;;18.80;46.50;;;;;;5053214;28;19918;-76
2023/03/29 12:08:53;;;;;;;;;;;18.70;44.80;;;;;;5035317;28;19916;-76
2023/03/29 12:11:26;;;;;;;;;;;18.80;45.50;;;;;;4952526;29;19914;-76
2023/03/29 12:14:02;;;;;;;;;;;18.80;46.50;;;;;;4974750;28;19921;-76
2023/03/29 12:16:43;;;;;;;;;;;18.80;47.70;;;;;;4975250;28;19909;-75
2023/03/29 12:19:18;;;;;;;;;;;18.80;44.70;;;;;;4991377;28;20362;-76
2023/03/29 12:21:45;;;;;;;;;;;18.70;42.90;;;;;;4991430;28;20004;-76
2023/03/29 12:24:12;;;;;;;;;;;18.60;45.70;;;;;;4975231;28;19949;-76
2023/03/29 12:26:47;;;;;;;;;;;18.60;45.80;;;;;;4991229;28;19913;-76
2023/03/29 12:29:32;;;;;;;;;;;18.60;44.80;;;;;;4991108;28;20400;-76
2023/03/29 12:31:58;;;;;;;;;;;18.50;44.80;;;;;;4991346;28;19929;-76
2023/03/29 12:34:52;;;;;;;;;;;18.60;46.70;;;;;;4974925;28;20372;-76
2023/03/29 12:37:36;;;;;;;;;;;18.50;44.90;;;;;;4975874;28;19964;-75
2023/03/29 12:40:21;;;;;;;;;;;18.30;47.50;;;;;;4991095;28;20008;-76
2023/03/29 12:43:07;;;;;;;;;;;18.30;45.80;;;;;;4991060;28;20525;-76
2023/03/29 12:46:17;;;;;;;;;;;18.30;48.20;;;;;;4974687;28;20012;-76
2023/03/29 12:48:44;;;;;;;;;;;18.20;45.10;;;;;;5044668;28;19916;-76
2023/03/29 12:51:14;;;;;;;;;;;18.30;47.10;;;;;;5071169;28;20292;-76
2023/03/29 12:53:45;;;;;;;;;;;18.20;47.70;;;;;;5072509;28;20409;-76
2023/03/29 12:56:13;;;;;;;;;;;18.30;47.50;;;;;;5071249;28;20390;-76
2023/03/29 12:58:39;;;;;;;;;;;18.30;45.30;;;;;;5072405;28;19915;-76
2023/03/29 13:01:06;;;;;;;;;;;18.30;42.70;;;;;;5072331;28;19912;-76
2023/03/29 13:03:38;;;;;;;;;;;18.10;44.60;;;;;;5072331;28;19912;-76
2023/03/29 13:06:07;;;;;;;;;;;18.00;46.30;;;;;;5070795;28;20195;-76
2023/03/29 13:08:33;;;;;;;;;;;18.10;44.10;;;;;;5071882;28;19916;-76
2023/03/29 13:10:59;;;;;;;;;;;18.00;42.70;;;;;;5072246;28;20370;-76
2023/03/29 13:13:43;;;;;;;;;;;18.00;42.60;;;;;;5064535;28;19982;-75
2023/03/29 13:16:13;;;;;;;;;;;18.00;48.00;;;;;;5052242;28;20280;-75
2023/03/29 13:18:59;;;;;;;;;;;18.00;47.60;;;;;;5051499;28;19912;-76
2023/03/29 13:21:39;;;;;;;;;;;18.00;43.60;;;;;;5034044;28;20382;-76
2023/03/29 13:24:25;;;;;;;;;;;18.10;45.70;;;;;;5034083;28;20370;-75
2023/03/29 13:26:51;;;;;;;;;;;18.20;46.00;;;;;;5051674;28;19917;-76
2023/03/29 13:29:19;;;;;;;;;;;18.20;46.80;;;;;;5051908;28;19920;-76
2023/03/29 13:31:55;;;;;;;;;;;18.00;45.60;;;;;;5051829;28;20415;-75
2023/03/29 13:34:30;;;;;;;;;;;18.10;48.60;;;;;;5034045;28;19909;-76
2023/03/29 13:37:15;;;;;;;;;;;18.30;48.90;;;;;;5033887;28;19913;-75
2023/03/29 13:39:47;;;;;;;;;;;18.30;49.10;;;;;;5051630;28;19912;-75
2023/03/29 13:42:20;;;;;;;;;;;18.40;48.60;;;;;;5051447;28;19947;-76
2023/03/29 13:44:48;;;;;;;;;;;18.50;46.40;;;;;;5034036;28;19909;-76
2023/03/29 13:47:15;;;;;;;;;;;18.50;48.00;;;;;;5051448;28;19924;-76
2023/03/29 13:49:42;;;;;;;;;;;18.50;47.80;;;;;;5051352;28;19923;-76
2023/03/29 13:52:14;;;;;;;;;;;18.50;48.60;;;;;;5051570;28;19962;-76
2023/03/29 13:54:50;;;;;;;;;;;18.60;45.40;;;;;;5051562;28;19913;-76
2023/03/29 13:57:21;;;;;;;;;;;18.50;47.40;;;;;;5051576;28;19919;-76
2023/03/29 13:59:51;;;;;;;;;;;18.50;46.80;;;;;;5051490;28;19955;-76
2023/03/29 14:02:25;;;;;;;;;;;18.50;46.90;;;;;;5051357;28;19908;-75
2023/03/29 14:04:52;;;;;;;;;;;18.50;46.10;;;;;;5051460;28;19953;-76
2023/03/29 14:07:20;;;;;;;;;;;18.50;48.00;;;;;;5051109;28;19942;-75
2023/03/29 14:09:48;;;;;;;;;;;18.30;48.30;;;;;;5051423;28;19920;-76
2023/03/29 14:12:14;;;;;;;;;;;18.30;46.00;;;;;;5051085;28;19913;-76
2023/03/29 14:14:41;;;;;;;;;;;18.30;48.30;;;;;;5066295;28;19961;-76
2023/03/29 14:17:12;;;;;;;;;;;18.40;49.00;;;;;;5071278;28;19961;-75
2023/03/29 14:19:38;;;;;;;;;;;18.40;48.40;;;;;;5071018;28;19972;-76
2023/03/29 14:22:13;;;;;;;;;;;18.40;48.10;;;;;;5071491;28;20360;-76
2023/03/29 14:24:40;;;;;;;;;;;18.40;47.30;;;;;;5071466;28;19909;-76
2023/03/29 14:27:10;;;;;;;;;;;18.50;47.20;;;;;;5071286;28;20011;-76
2023/03/29 14:29:36;;;;;;;;;;;18.40;47.70;;;;;;5071802;28;19916;-76
2023/03/29 14:32:09;;;;;;;;;;;18.50;48.30;;;;;;5075364;28;19936;-75
2023/03/29 14:34:35;;;;;;;;;;;18.40;49.00;;;;;;5075383;28;19908;-76
2023/03/29 14:37:01;;;;;;;;;;;18.50;48.90;;;;;;5075158;28;19962;-76
2023/03/29 14:39:31;;;;;;;;;;;18.50;48.80;;;;;;5074946;28;19912;-76
2023/03/29 14:41:57;;;;;;;;;;;18.70;48.90;;;;;;5075049;28;19977;-76
2023/03/29 14:44:24;;;;;;;;;;;18.60;48.60;;;;;;5074867;28;20296;-76
2023/03/29 14:46:51;;;;;;;;;;;18.60;48.50;;;;;;5074859;28;19966;-76